Pulau Tioman — 3EYO9 — position and weather

sailwx.info

Track history (hours):
 
Tides and Currents Weather Stations Pressure Air Temp Water Temp Dewpoint Dewpoint Depression Visibility Wind Speed Wind Dir Waves Ship Positions

Pulau Tioman

Last reported at 2016-Aug-10 07:25 UTC. Time now 2016-Aug-25 06:18 UTC.
Position N 35°03' E 139°34'.
Warning: this ship's position is 14 days out of date.

Length 120 m; draft 5.9 m.

Type: Cargo ship. MMSI: 356613000.

Date/timePositionNaut miles runAvg speedWind from/ knotsBaromVisibWave heightAir tempDewpointWater temp
2016-Aug-10 07:25N 35°03' E 139°34'1213.7
2016-Aug-10 06:33N 35°11' E 139°45'1211.7
2016-Aug-10 05:34N 35°22' E 139°42'5 4.5
2016-Aug-10 04:30N 35°27' E 139°41'0 0.0
2016-Aug-10 03:30N 35°27' E 139°41'0 0.0
2016-Aug-10 02:30N 35°27' E 139°41'0 0.0
2016-Aug-10 01:30N 35°27' E 139°41'0 0.0
2016-Aug-10 00:30N 35°27' E 139°41'0 0.0
2016-Aug-09 23:30N 35°27' E 139°41'0 0.0
2016-Aug-09 22:30N 35°27' E 139°41'0 0.0
2016-Aug-09 21:30N 35°27' E 139°41'0 0.0
2016-Aug-09 20:30N 35°27' E 139°41'0 0.0
2016-Aug-09 19:30N 35°27' E 139°41'0 0.0
2016-Aug-09 18:30N 35°27' E 139°41'0 0.0
2016-Aug-09 17:30N 35°27' E 139°41'0 0.0
2016-Aug-09 16:30N 35°27' E 139°41'0 0.0
2016-Aug-09 15:30N 35°27' E 139°41'0 0.0
2016-Aug-09 14:30N 35°27' E 139°41'0 0.0
2016-Aug-09 13:30N 35°27' E 139°41'0 0.0
2016-Aug-09 12:30N 35°27' E 139°41'0 0.0
2016-Aug-09 11:30N 35°27' E 139°41'0 0.0
2016-Aug-09 10:30N 35°27' E 139°41'0 0.0
2016-Aug-09 09:30N 35°27' E 139°41'0 0.0
2016-Aug-09 08:30N 35°27' E 139°41'0 0.0
2016-Aug-09 07:30N 35°27' E 139°41'0 0.2
2016-Aug-09 05:33N 35°27' E 139°41'1 1.2
2016-Aug-09 04:26N 35°26' E 139°42'0 0.1
2016-Aug-09 03:32N 35°26' E 139°42'0 0.0
2016-Aug-09 02:32N 35°26' E 139°42'0 0.0
2016-Aug-09 01:26N 35°26' E 139°42'0 0.0
2016-Aug-09 00:32N 35°26' E 139°42'0 0.0
2016-Aug-08 23:32N 35°26' E 139°42'0 0.0
2016-Aug-08 22:32N 35°26' E 139°42'0 0.0
2016-Aug-08 21:32N 35°26' E 139°42'0 0.0
2016-Aug-08 20:32N 35°26' E 139°42'0 0.0
2016-Aug-08 19:32N 35°26' E 139°42'0 0.0
2016-Aug-08 18:32N 35°26' E 139°42'0 0.0
2016-Aug-08 17:32N 35°26' E 139°42'0 0.0
2016-Aug-08 16:32N 35°26' E 139°42'0 0.0
2016-Aug-08 15:32N 35°26' E 139°42'0 0.0
2016-Aug-08 14:32N 35°26' E 139°42'1 1.1
2016-Aug-08 13:33N 35°25' E 139°43'8 8.2
2016-Aug-08 12:33N 35°17' E 139°45'1212.2
2016-Aug-08 11:33N 35°05' E 139°45'  
Track history (hours):
 
Tides and Currents Weather Stations Pressure Air Temp Water Temp Dewpoint Dewpoint Depression Visibility Wind Speed Wind Dir Waves Ship Positions

Pulau Tioman

Last reported at 2016-Aug-10 07:25 UTC. Time now 2016-Aug-25 06:18 UTC.
Position N 35°03' E 139°34'.
Warning: this ship's position is 14 days out of date.

Length 120 m; draft 5.9 m.

Type: Cargo ship. MMSI: 356613000.

Date/timePositionNaut miles runAvg speedWind from/ knotsBaromVisibWave heightAir tempDewpointWater temp
2016-Aug-10 07:25N 35°03' E 139°34'1213.7
2016-Aug-10 06:33N 35°11' E 139°45'1211.7
2016-Aug-10 05:34N 35°22' E 139°42'5 4.5
2016-Aug-10 04:30N 35°27' E 139°41'0 0.0
2016-Aug-10 03:30N 35°27' E 139°41'0 0.0
2016-Aug-10 02:30N 35°27' E 139°41'0 0.0
2016-Aug-10 01:30N 35°27' E 139°41'0 0.0
2016-Aug-10 00:30N 35°27' E 139°41'0 0.0
2016-Aug-09 23:30N 35°27' E 139°41'0 0.0
2016-Aug-09 22:30N 35°27' E 139°41'0 0.0
2016-Aug-09 21:30N 35°27' E 139°41'0 0.0
2016-Aug-09 20:30N 35°27' E 139°41'0 0.0
2016-Aug-09 19:30N 35°27' E 139°41'0 0.0
2016-Aug-09 18:30N 35°27' E 139°41'0 0.0
2016-Aug-09 17:30N 35°27' E 139°41'0 0.0
2016-Aug-09 16:30N 35°27' E 139°41'0 0.0
2016-Aug-09 15:30N 35°27' E 139°41'0 0.0
2016-Aug-09 14:30N 35°27' E 139°41'0 0.0
2016-Aug-09 13:30N 35°27' E 139°41'0 0.0
2016-Aug-09 12:30N 35°27' E 139°41'0 0.0
2016-Aug-09 11:30N 35°27' E 139°41'0 0.0
2016-Aug-09 10:30N 35°27' E 139°41'0 0.0
2016-Aug-09 09:30N 35°27' E 139°41'0 0.0
2016-Aug-09 08:30N 35°27' E 139°41'0 0.0
2016-Aug-09 07:30N 35°27' E 139°41'0 0.2
2016-Aug-09 05:33N 35°27' E 139°41'1 1.2
2016-Aug-09 04:26N 35°26' E 139°42'0 0.1
2016-Aug-09 03:32N 35°26' E 139°42'0 0.0
2016-Aug-09 02:32N 35°26' E 139°42'0 0.0
2016-Aug-09 01:26N 35°26' E 139°42'0 0.0
2016-Aug-09 00:32N 35°26' E 139°42'0 0.0
2016-Aug-08 23:32N 35°26' E 139°42'0 0.0
2016-Aug-08 22:32N 35°26' E 139°42'0 0.0
2016-Aug-08 21:32N 35°26' E 139°42'0 0.0
2016-Aug-08 20:32N 35°26' E 139°42'0 0.0
2016-Aug-08 19:32N 35°26' E 139°42'0 0.0
2016-Aug-08 18:32N 35°26' E 139°42'0 0.0
2016-Aug-08 17:32N 35°26' E 139°42'0 0.0
2016-Aug-08 16:32N 35°26' E 139°42'0 0.0
2016-Aug-08 15:32N 35°26' E 139°42'0 0.0
2016-Aug-08 14:32N 35°26' E 139°42'1 1.1
2016-Aug-08 13:33N 35°25' E 139°43'8 8.2
2016-Aug-08 12:33N 35°17' E 139°45'1212.2
2016-Aug-08 11:33N 35°05' E 139°45'  

Dump ship's entire track history